Time;durP1;ratioP1;P1;durP2;ratioP2;P2;SDS_P1;SDS_P2;PMS_P1;PMS_P2;Temp;Humidity;BMP_temperature;BMP_pressure;BME280_temperature;BME280_humidity;BME280_pressure;Samples;Min_cycle;Max_cycle;Signal;HPM_P1;HPM_P2
2022/10/14 00:01:21;;;;;;;26.93;15.70;;;12.40;99.90;;;;;;5091580;28;20588;-58
2022/10/14 00:03:49;;;;;;;28.97;16.77;;;12.40;99.90;;;;;;5091560;28;20211;-58
2022/10/14 00:06:18;;;;;;;25.37;16.00;;;12.30;99.90;;;;;;5092057;28;20250;-59
2022/10/14 00:08:47;;;;;;;26.47;17.07;;;12.40;99.90;;;;;;5094878;28;20768;-58
2022/10/14 00:11:15;;;;;;;31.77;16.40;;;12.40;99.90;;;;;;5094965;28;20231;-59
2022/10/14 00:13:42;;;;;;;34.37;17.13;;;12.40;99.90;;;;;;5094981;28;20258;-58
2022/10/14 00:16:16;;;;;;;31.87;16.20;;;12.40;99.90;;;;;;5094564;28;20211;-59
2022/10/14 00:18:42;;;;;;;27.93;17.30;;;12.30;99.90;;;;;;5094823;28;20231;-58
2022/10/14 00:21:12;;;;;;;30.13;17.80;;;12.30;99.90;;;;;;5094818;28;20260;-59
2022/10/14 00:23:39;;;;;;;29.43;17.87;;;12.30;99.90;;;;;;5094759;28;20564;-57
2022/10/14 00:26:07;;;;;;;30.03;17.57;;;12.30;99.90;;;;;;5094085;28;20219;-59
2022/10/14 00:28:33;;;;;;;29.77;18.03;;;12.30;99.90;;;;;;5094741;28;20221;-59
2022/10/14 00:31:01;;;;;;;32.33;18.83;;;12.30;99.90;;;;;;5094820;28;20204;-59
2022/10/14 00:33:29;;;;;;;30.90;19.97;;;12.30;99.90;;;;;;5093993;28;20735;-59
2022/10/14 00:35:58;;;;;;;31.40;19.00;;;12.30;99.90;;;;;;5094232;28;20208;-59
2022/10/14 00:38:24;;;;;;;33.47;19.77;;;12.30;99.90;;;;;;5094356;28;20258;-59
2022/10/14 00:40:51;;;;;;;33.50;20.00;;;12.30;99.90;;;;;;5094511;28;20278;-57
2022/10/14 00:43:20;;;;;;;35.43;20.60;;;12.20;99.90;;;;;;5094620;28;20215;-59
2022/10/14 00:45:46;;;;;;;35.47;20.30;;;12.30;99.90;;;;;;5094406;28;20208;-60
2022/10/14 00:48:14;;;;;;;40.60;20.23;;;12.30;99.90;;;;;;5093805;28;20207;-59
2022/10/14 00:50:45;;;;;;;37.83;21.10;;;12.20;99.90;;;;;;5094563;28;20663;-58
2022/10/14 00:53:13;;;;;;;49.30;22.90;;;12.30;99.90;;;;;;5094103;28;20249;-59
2022/10/14 00:55:42;;;;;;;41.57;22.73;;;12.20;99.90;;;;;;5094092;28;20236;-59
2022/10/14 00:58:09;;;;;;;47.13;24.13;;;12.20;99.90;;;;;;5094353;28;20226;-59
2022/10/14 01:00:38;;;;;;;43.90;23.63;;;12.30;99.90;;;;;;5093984;28;20621;-58
2022/10/14 01:03:08;;;;;;;42.90;23.50;;;12.30;99.90;;;;;;5093813;28;20208;-59
2022/10/14 01:05:45;;;;;;;49.83;24.77;;;12.30;99.90;;;;;;5093823;28;20571;-57
2022/10/14 01:08:17;;;;;;;46.07;24.50;;;12.30;99.90;;;;;;5093633;28;20207;-58
2022/10/14 01:10:49;;;;;;;46.27;24.47;;;12.30;99.90;;;;;;5094045;28;20261;-59
2022/10/14 01:13:25;;;;;;;47.73;24.03;;;12.20;99.90;;;;;;5093892;28;20260;-59
2022/10/14 01:16:03;;;;;;;45.10;25.20;;;12.30;99.90;;;;;;5093686;28;20204;-59
2022/10/14 01:18:43;;;;;;;49.27;24.10;;;12.30;99.90;;;;;;5092786;28;20239;-59
2022/10/14 01:21:17;;;;;;;44.10;23.70;;;12.30;99.90;;;;;;5093886;28;20215;-59
2022/10/14 01:24:06;;;;;;;47.30;23.07;;;12.40;99.90;;;;;;5093637;28;20204;-58
2022/10/14 01:27:15;;;;;;;46.13;23.27;;;12.30;99.90;;;;;;5093459;28;20212;-59
2022/10/14 01:30:09;;;;;;;47.70;22.77;;;12.40;99.90;;;;;;5046240;28;20230;-59
2022/10/14 01:32:43;;;;;;;48.03;23.57;;;12.30;99.90;;;;;;5089777;28;20215;-59
2022/10/14 01:35:17;;;;;;;43.63;23.80;;;12.30;99.90;;;;;;5093620;28;20298;-59
2022/10/14 01:37:48;;;;;;;39.00;21.97;;;12.30;99.90;;;;;;5093105;28;20224;-59
2022/10/14 01:40:22;;;;;;;39.17;22.00;;;12.40;99.90;;;;;;5093450;28;20348;-59
2022/10/14 01:42:51;;;;;;;37.83;21.40;;;12.40;99.90;;;;;;5093193;28;20208;-58
2022/10/14 01:45:21;;;;;;;38.27;20.73;;;12.40;99.90;;;;;;5093268;28;20204;-59
2022/10/14 01:47:50;;;;;;;35.80;19.90;;;12.40;99.90;;;;;;5092961;28;20252;-59
2022/10/14 01:50:19;;;;;;;37.63;20.70;;;12.40;99.90;;;;;;5093280;28;20228;-59
2022/10/14 01:52:51;;;;;;;35.37;20.40;;;12.40;99.90;;;;;;5093033;28;20562;-59
2022/10/14 01:55:23;;;;;;;34.10;19.70;;;12.40;99.90;;;;;;5093149;28;20207;-59
2022/10/14 01:57:53;;;;;;;35.77;18.20;;;12.40;99.90;;;;;;5092469;28;20311;-59
2022/10/14 02:00:21;;;;;;;32.20;18.93;;;12.40;99.90;;;;;;5092954;28;20638;-58
2022/10/14 02:02:48;;;;;;;33.87;18.73;;;12.40;99.90;;;;;;5092490;28;20212;-59
2022/10/14 02:05:20;;;;;;;32.73;18.47;;;12.40;99.90;;;;;;5092866;28;20208;-59
2022/10/14 02:07:51;;;;;;;31.73;17.33;;;12.40;99.90;;;;;;5092427;28;20203;-59
2022/10/14 02:10:28;;;;;;;30.33;17.20;;;12.40;99.90;;;;;;5092944;28;20231;-59
2022/10/14 02:13:07;;;;;;;31.30;16.43;;;12.50;99.90;;;;;;5092855;28;20207;-58
2022/10/14 02:15:47;;;;;;;30.47;16.63;;;12.40;99.90;;;;;;5092837;28;20206;-58
2022/10/14 02:18:20;;;;;;;29.50;17.17;;;12.40;99.90;;;;;;5092112;28;20223;-59
2022/10/14 02:20:54;;;;;;;29.37;16.10;;;12.40;99.90;;;;;;5092820;28;20215;-59
2022/10/14 02:23:25;;;;;;;29.83;17.23;;;12.40;99.90;;;;;;5092648;28;20215;-59
2022/10/14 02:25:54;;;;;;;28.80;17.33;;;12.40;99.90;;;;;;5092218;28;20691;-59
2022/10/14 02:28:25;;;;;;;32.07;17.80;;;12.40;99.90;;;;;;5092354;28;20260;-59
2022/10/14 02:30:56;;;;;;;28.63;16.10;;;12.40;99.90;;;;;;5092278;28;20207;-59
2022/10/14 02:33:28;;;;;;;26.43;16.60;;;12.40;99.90;;;;;;5092432;28;20212;-59
2022/10/14 02:35:56;;;;;;;28.67;16.33;;;12.40;99.90;;;;;;5092317;28;20206;-58
2022/10/14 02:38:24;;;;;;;28.23;16.37;;;12.50;99.90;;;;;;5092026;28;20224;-59
2022/10/14 02:40:51;;;;;;;30.73;17.17;;;12.50;99.90;;;;;;5092233;28;20204;-60
2022/10/14 02:43:18;;;;;;;30.33;17.37;;;12.50;99.90;;;;;;5092139;28;20208;-59
2022/10/14 02:45:45;;;;;;;27.43;16.80;;;12.50;99.90;;;;;;5092446;28;20549;-59
2022/10/14 02:48:13;;;;;;;32.90;16.87;;;12.60;99.90;;;;;;5091979;28;20207;-59
2022/10/14 02:50:41;;;;;;;30.70;16.83;;;12.60;99.90;;;;;;5092020;28;20617;-59
2022/10/14 02:53:08;;;;;;;33.67;16.83;;;12.60;99.90;;;;;;5092046;28;20203;-59
2022/10/14 02:55:34;;;;;;;30.20;16.87;;;12.50;99.90;;;;;;5092098;28;20213;-59
2022/10/14 02:58:01;;;;;;;30.87;17.43;;;12.50;99.90;;;;;;5091662;28;20254;-59
2022/10/14 03:00:27;;;;;;;31.37;17.23;;;12.40;99.90;;;;;;5092114;28;20235;-59
2022/10/14 03:02:54;;;;;;;32.10;18.40;;;12.40;99.90;;;;;;5091959;28;20256;-59
2022/10/14 03:05:22;;;;;;;31.77;17.73;;;12.40;99.90;;;;;;5092074;28;20200;-59
2022/10/14 03:07:49;;;;;;;30.27;16.97;;;12.50;99.90;;;;;;5091907;28;20299;-59
2022/10/14 03:10:16;;;;;;;34.57;17.60;;;12.50;99.90;;;;;;5091643;28;20227;-59
2022/10/14 03:12:43;;;;;;;31.03;17.13;;;12.50;99.90;;;;;;5091839;28;20266;-59
2022/10/14 03:15:10;;;;;;;29.23;17.23;;;12.50;99.90;;;;;;5092072;28;20220;-59
2022/10/14 03:17:37;;;;;;;32.97;17.77;;;12.50;99.90;;;;;;5091619;28;20227;-59
2022/10/14 03:20:04;;;;;;;36.57;18.60;;;12.50;99.90;;;;;;5091744;28;20274;-59
2022/10/14 03:22:32;;;;;;;35.73;18.80;;;12.50;99.90;;;;;;5091537;28;20218;-59
2022/10/14 03:24:59;;;;;;;33.50;18.43;;;12.40;99.90;;;;;;5091417;28;20237;-59
2022/10/14 03:27:26;;;;;;;32.93;18.13;;;12.40;99.90;;;;;;5091811;28;20246;-60
2022/10/14 03:29:52;;;;;;;35.10;18.07;;;12.40;99.90;;;;;;5091621;28;20227;-59
2022/10/14 03:32:19;;;;;;;32.93;17.70;;;12.50;99.90;;;;;;5091837;28;20269;-58
2022/10/14 03:34:45;;;;;;;32.93;17.60;;;12.40;99.90;;;;;;5091603;28;20208;-58
2022/10/14 03:37:12;;;;;;;28.63;16.53;;;12.40;99.90;;;;;;5091380;28;20639;-59
2022/10/14 03:39:40;;;;;;;31.57;17.23;;;12.40;99.90;;;;;;5091185;28;20228;-59
2022/10/14 03:42:07;;;;;;;34.43;17.57;;;12.40;99.90;;;;;;5093982;28;20204;-55
2022/10/14 03:44:33;;;;;;;30.17;15.83;;;12.40;99.90;;;;;;5095811;28;20257;-57
2022/10/14 03:47:00;;;;;;;35.20;16.93;;;12.40;99.90;;;;;;5095249;28;20272;-58
2022/10/14 03:49:27;;;;;;;33.40;17.40;;;12.40;99.90;;;;;;5095442;28;20304;-58
2022/10/14 03:51:53;;;;;;;31.23;17.10;;;12.40;99.90;;;;;;5095463;28;20234;-59
2022/10/14 03:54:20;;;;;;;34.63;17.80;;;12.50;99.90;;;;;;5095225;28;20256;-58
2022/10/14 03:56:49;;;;;;;32.50;17.83;;;12.50;99.90;;;;;;5095351;28;20265;-59
2022/10/14 03:59:16;;;;;;;32.10;16.90;;;12.50;99.90;;;;;;5095207;28;20315;-57
2022/10/14 04:01:43;;;;;;;34.40;17.63;;;12.50;99.90;;;;;;5095203;28;20201;-57
2022/10/14 04:04:10;;;;;;;29.17;17.10;;;12.50;99.90;;;;;;5095050;28;20216;-59
2022/10/14 04:06:37;;;;;;;31.10;16.40;;;12.50;99.90;;;;;;5094694;28;20257;-58
2022/10/14 04:09:04;;;;;;;32.30;16.43;;;12.50;99.90;;;;;;5095064;28;20737;-58
2022/10/14 04:11:30;;;;;;;34.23;16.37;;;12.50;99.90;;;;;;5095041;28;20728;-59
2022/10/14 04:13:59;;;;;;;30.77;16.83;;;12.50;99.90;;;;;;5094873;28;20686;-59
2022/10/14 04:16:25;;;;;;;29.47;14.93;;;12.50;99.90;;;;;;5094804;28;20620;-59
2022/10/14 04:18:52;;;;;;;28.57;16.10;;;12.50;99.90;;;;;;5094796;28;20255;-59
2022/10/14 04:21:19;;;;;;;30.03;16.60;;;12.50;99.90;;;;;;5094851;28;20211;-59
2022/10/14 04:23:46;;;;;;;28.50;16.67;;;12.60;99.90;;;;;;5095109;28;20211;-57
2022/10/14 04:26:13;;;;;;;27.77;15.83;;;12.60;99.90;;;;;;5094844;28;20276;-58
2022/10/14 04:28:39;;;;;;;25.60;15.67;;;12.60;99.90;;;;;;5094746;28;20232;-58
2022/10/14 04:31:07;;;;;;;27.63;15.37;;;12.60;99.90;;;;;;5094671;28;20204;-59
2022/10/14 04:33:35;;;;;;;27.00;15.37;;;12.50;99.90;;;;;;5094493;28;20270;-58
2022/10/14 04:36:03;;;;;;;26.70;16.17;;;12.50;99.90;;;;;;5094180;28;20210;-56
2022/10/14 04:38:30;;;;;;;27.43;15.27;;;12.50;99.90;;;;;;5094591;28;20257;-59
2022/10/14 04:40:57;;;;;;;24.50;15.23;;;12.50;99.90;;;;;;5085416;28;20200;-63
2022/10/14 04:43:23;;;;;;;26.83;15.90;;;12.50;99.90;;;;;;5091809;28;20212;-60
2022/10/14 04:45:50;;;;;;;23.53;14.43;;;12.50;99.90;;;;;;5093036;28;20208;-60
2022/10/14 04:48:18;;;;;;;27.83;16.10;;;12.50;99.90;;;;;;5093714;28;20256;-60
2022/10/14 04:50:45;;;;;;;29.40;14.97;;;12.50;99.90;;;;;;5093812;28;20212;-59
2022/10/14 04:53:12;;;;;;;27.07;15.23;;;12.40;99.90;;;;;;5092847;28;20208;-60
2022/10/14 04:55:38;;;;;;;27.77;15.50;;;12.40;99.90;;;;;;5093301;28;20208;-59
2022/10/14 04:58:05;;;;;;;28.40;15.43;;;12.40;99.90;;;;;;5093838;28;20220;-57
2022/10/14 05:00:32;;;;;;;26.50;15.87;;;12.40;99.90;;;;;;5093574;28;20224;-59
2022/10/14 05:02:58;;;;;;;26.87;16.67;;;12.40;99.90;;;;;;5094207;28;20208;-59
2022/10/14 05:05:26;;;;;;;26.33;15.43;;;12.40;99.90;;;;;;5093797;28;20274;-60
2022/10/14 05:07:53;;;;;;;25.97;16.17;;;12.40;99.90;;;;;;5093236;28;20250;-60
2022/10/14 05:10:20;;;;;;;27.27;15.90;;;12.50;99.90;;;;;;5093813;28;20256;-60
2022/10/14 05:12:46;;;;;;;26.83;16.27;;;12.50;99.90;;;;;;5093392;28;20212;-60
2022/10/14 05:15:13;;;;;;;26.50;15.43;;;12.50;99.90;;;;;;5093453;28;20268;-59
2022/10/14 05:17:43;;;;;;;28.53;15.97;;;12.50;99.90;;;;;;5092715;28;20204;-60
2022/10/14 05:20:10;;;;;;;25.63;15.67;;;12.50;99.90;;;;;;5093562;28;20243;-59
2022/10/14 05:22:39;;;;;;;26.03;15.10;;;12.50;99.90;;;;;;5093314;28;20264;-59
2022/10/14 05:25:06;;;;;;;25.07;14.73;;;12.50;99.90;;;;;;5093048;28;20204;-59
2022/10/14 05:27:33;;;;;;;26.17;15.50;;;12.50;99.90;;;;;;5092828;28;20211;-64
2022/10/14 05:30:00;;;;;;;23.33;13.83;;;12.50;99.90;;;;;;5093043;28;20228;-57
2022/10/14 05:32:26;;;;;;;22.53;14.50;;;12.50;99.90;;;;;;5093190;28;20633;-61
2022/10/14 05:34:54;;;;;;;23.50;13.87;;;12.60;99.90;;;;;;5092828;28;20675;-61
2022/10/14 05:37:20;;;;;;;22.57;13.53;;;12.60;99.90;;;;;;5093015;28;20575;-58
2022/10/14 05:39:48;;;;;;;22.47;14.73;;;12.60;99.90;;;;;;5092587;28;20232;-62
2022/10/14 05:42:15;;;;;;;22.77;14.80;;;12.60;99.90;;;;;;5083770;28;20291;-61
2022/10/14 05:44:42;;;;;;;20.57;13.37;;;12.60;99.90;;;;;;5091151;28;20250;-62
2022/10/14 05:47:09;;;;;;;26.63;15.33;;;12.70;99.90;;;;;;5092452;28;20215;-62
2022/10/14 05:49:35;;;;;;;21.93;14.10;;;12.60;99.90;;;;;;5092306;28;20220;-62
2022/10/14 05:52:02;;;;;;;21.90;13.90;;;12.70;99.90;;;;;;5092340;28;20208;-62
2022/10/14 05:54:29;;;;;;;21.80;13.20;;;12.60;99.90;;;;;;5091693;28;20211;-61
2022/10/14 05:56:57;;;;;;;22.07;13.67;;;12.70;99.90;;;;;;5092026;28;20208;-64
2022/10/14 05:59:24;;;;;;;20.73;12.90;;;12.60;99.90;;;;;;5092257;28;20286;-63
2022/10/14 06:01:50;;;;;;;19.77;12.97;;;12.60;99.90;;;;;;5091706;28;20208;-62
2022/10/14 06:04:18;;;;;;;21.27;12.97;;;12.70;99.90;;;;;;5091834;28;20204;-64
2022/10/14 06:06:45;;;;;;;20.13;13.10;;;12.70;99.90;;;;;;5091868;28;20215;-64
2022/10/14 06:09:13;;;;;;;21.40;12.63;;;12.70;99.90;;;;;;5092246;28;20714;-63
2022/10/14 06:11:40;;;;;;;20.60;12.77;;;12.70;99.90;;;;;;5091630;28;20609;-63
2022/10/14 06:14:09;;;;;;;15.10;11.50;;;12.70;99.90;;;;;;5092062;28;20204;-63
2022/10/14 06:16:35;;;;;;;17.00;11.30;;;12.70;99.90;;;;;;5091800;28;20588;-63
2022/10/14 06:19:02;;;;;;;15.20;11.23;;;12.80;99.90;;;;;;5091611;28;20296;-62
2022/10/14 06:21:29;;;;;;;16.07;11.20;;;12.80;99.90;;;;;;5092159;28;20610;-60
2022/10/14 06:23:56;;;;;;;15.87;11.10;;;12.80;99.90;;;;;;5091479;28;20263;-64
2022/10/14 06:26:22;;;;;;;14.77;10.57;;;12.80;99.90;;;;;;5091720;28;20212;-67
2022/10/14 06:28:49;;;;;;;17.17;11.83;;;12.80;99.90;;;;;;5091039;28;20224;-65
2022/10/14 06:31:17;;;;;;;18.00;11.17;;;12.80;99.90;;;;;;5091062;28;20200;-60
2022/10/14 06:33:44;;;;;;;14.97;10.90;;;12.80;99.90;;;;;;5090953;28;20605;-60
2022/10/14 06:36:11;;;;;;;16.33;10.53;;;12.80;99.90;;;;;;5091842;28;20216;-65
2022/10/14 06:38:38;;;;;;;17.23;11.50;;;12.90;99.90;;;;;;5091450;28;20229;-66
2022/10/14 06:41:05;;;;;;;16.37;11.23;;;12.90;99.90;;;;;;5091171;28;20215;-71
2022/10/14 06:43:34;;;;;;;14.63;10.33;;;13.00;99.90;;;;;;5091055;28;20215;-63
2022/10/14 06:46:02;;;;;;;17.03;10.73;;;13.00;99.90;;;;;;5087234;28;20216;-62
2022/10/14 06:48:30;;;;;;;18.10;10.83;;;13.10;99.90;;;;;;5091526;28;20199;-64
2022/10/14 06:50:59;;;;;;;15.23;11.37;;;13.00;99.90;;;;;;5086876;28;20208;-63
2022/10/14 06:53:26;;;;;;;15.37;11.00;;;13.10;99.90;;;;;;5091250;28;20784;-68
2022/10/14 06:55:58;;;;;;;15.00;10.67;;;13.00;99.90;;;;;;5090841;28;20219;-67
2022/10/14 06:58:25;;;;;;;14.73;10.90;;;13.10;99.90;;;;;;5091354;28;20697;-65
2022/10/14 07:00:52;;;;;;;14.57;11.07;;;13.10;99.90;;;;;;5091261;28;20910;-67
2022/10/14 07:03:19;;;;;;;15.17;10.33;;;13.10;99.90;;;;;;5090887;28;20238;-61
2022/10/14 07:05:47;;;;;;;17.23;11.33;;;13.10;99.90;;;;;;5090940;28;20237;-61
2022/10/14 07:08:13;;;;;;;13.77;10.60;;;13.10;99.90;;;;;;5090825;28;20319;-61
2022/10/14 07:10:40;;;;;;;15.10;10.87;;;13.20;99.90;;;;;;5091131;28;20670;-61
2022/10/14 07:13:07;;;;;;;11.97;9.73;;;13.20;99.90;;;;;;5090748;28;20204;-61
2022/10/14 07:15:33;;;;;;;16.83;10.37;;;13.30;99.90;;;;;;5091223;28;20204;-61
2022/10/14 07:18:00;;;;;;;11.93;9.27;;;13.30;99.90;;;;;;5094730;28;20211;-62
2022/10/14 07:20:27;;;;;;;12.77;9.80;;;13.40;99.90;;;;;;5095292;28;20228;-61
2022/10/14 07:22:56;;;;;;;13.13;10.00;;;13.40;99.90;;;;;;5095249;28;20689;-61
2022/10/14 07:25:23;;;;;;;12.07;9.87;;;13.40;99.90;;;;;;5094467;28;20239;-63
2022/10/14 07:27:51;;;;;;;11.67;9.13;;;13.50;99.90;;;;;;5095291;28;20208;-62
2022/10/14 07:30:18;;;;;;;13.97;9.57;;;13.50;99.90;;;;;;5095129;28;20224;-61
2022/10/14 07:32:44;;;;;;;13.43;10.10;;;13.50;99.90;;;;;;5081147;28;20208;-62
2022/10/14 07:35:11;;;;;;;11.83;9.83;;;13.60;99.90;;;;;;5092455;28;20219;-62
2022/10/14 07:37:38;;;;;;;12.40;9.53;;;13.70;99.90;;;;;;5094983;28;20273;-62
2022/10/14 07:40:08;;;;;;;12.63;9.10;;;13.70;99.90;;;;;;5094609;28;20228;-61
2022/10/14 07:42:35;;;;;;;13.37;8.70;;;13.70;99.90;;;;;;5094667;28;20220;-61
2022/10/14 07:45:01;;;;;;;10.70;8.50;;;13.70;99.90;;;;;;5094670;28;20262;-61
2022/10/14 07:47:28;;;;;;;9.47;8.17;;;13.70;99.90;;;;;;5094301;28;20208;-61
2022/10/14 07:49:55;;;;;;;12.10;8.10;;;13.70;99.90;;;;;;5094728;28;20763;-61
2022/10/14 07:52:21;;;;;;;10.70;8.10;;;13.70;99.90;;;;;;5094444;28;20262;-61
2022/10/14 07:54:48;;;;;;;9.53;6.80;;;13.60;99.90;;;;;;5094302;28;20671;-60
2022/10/14 07:57:16;;;;;;;11.20;7.37;;;13.60;99.90;;;;;;5094076;28;20220;-59
2022/10/14 07:59:43;;;;;;;10.50;6.87;;;13.50;99.90;;;;;;5094678;28;20264;-61
2022/10/14 08:02:11;;;;;;;9.27;7.40;;;13.50;99.90;;;;;;5094259;28;20204;-60
2022/10/14 08:04:38;;;;;;;8.73;6.47;;;13.50;99.90;;;;;;5093896;28;20212;-60
2022/10/14 08:07:04;;;;;;;6.47;5.80;;;13.50;99.90;;;;;;5094331;28;20211;-58
2022/10/14 08:09:32;;;;;;;10.10;6.33;;;13.50;99.90;;;;;;5093971;28;20293;-60
2022/10/14 08:11:58;;;;;;;8.50;6.53;;;13.60;99.90;;;;;;5094441;28;20746;-64
2022/10/14 08:14:26;;;;;;;7.07;5.33;;;13.60;99.90;;;;;;5093683;28;20303;-59
2022/10/14 08:16:53;;;;;;;7.57;5.67;;;13.60;99.90;;;;;;5094024;28;20210;-59
2022/10/14 08:19:20;;;;;;;6.40;5.40;;;13.60;99.90;;;;;;5093984;28;20227;-63
2022/10/14 08:21:47;;;;;;;6.90;5.20;;;13.70;99.90;;;;;;5091513;28;20552;-58
2022/10/14 08:24:14;;;;;;;5.23;4.73;;;13.70;99.90;;;;;;5093739;28;21012;-63
2022/10/14 08:26:48;;;;;;;6.10;4.07;;;13.80;99.90;;;;;;5093414;28;20219;-62
2022/10/14 08:29:15;;;;;;;4.90;4.17;;;13.80;99.90;;;;;;5094112;28;20252;-63
2022/10/14 08:31:43;;;;;;;5.67;4.20;;;13.80;99.90;;;;;;5093965;28;20634;-60
2022/10/14 08:34:10;;;;;;;5.47;4.13;;;13.80;99.90;;;;;;5092019;28;20613;-63
2022/10/14 08:36:37;;;;;;;5.00;3.50;;;13.90;99.90;;;;;;5093432;28;20258;-62
2022/10/14 08:39:04;;;;;;;4.50;3.60;;;13.90;99.90;;;;;;5093538;28;20243;-63
2022/10/14 08:41:46;;;;;;;4.23;3.30;;;13.90;99.90;;;;;;5093540;28;20209;-64
2022/10/14 08:44:18;;;;;;;4.47;3.20;;;14.00;99.90;;;;;;5091895;28;20209;-65
2022/10/14 08:46:51;;;;;;;4.37;3.43;;;14.00;99.90;;;;;;5093569;28;20303;-63
2022/10/14 08:49:23;;;;;;;4.50;3.20;;;14.00;99.90;;;;;;5093420;28;20220;-63
2022/10/14 08:51:55;;;;;;;3.60;2.93;;;14.00;99.90;;;;;;5093920;28;20208;-63
2022/10/14 08:54:30;;;;;;;3.20;2.70;;;14.00;99.90;;;;;;5093047;28;20189;-62
2022/10/14 08:56:58;;;;;;;4.50;2.77;;;14.00;99.90;;;;;;5093589;28;20204;-62
2022/10/14 08:59:26;;;;;;;3.00;2.60;;;14.00;99.90;;;;;;5092786;28;20269;-62
2022/10/14 09:01:59;;;;;;;2.67;2.47;;;14.00;99.90;;;;;;5093590;28;20200;-58
2022/10/14 09:04:26;;;;;;;3.13;2.50;;;14.00;99.90;;;;;;5092659;28;20208;-61
2022/10/14 09:06:54;;;;;;;2.50;2.30;;;14.00;99.90;;;;;;5093185;28;20265;-61
2022/10/14 09:09:26;;;;;;;6.37;2.83;;;14.10;99.90;;;;;;5093051;28;20269;-61
2022/10/14 09:11:57;;;;;;;3.00;2.13;;;14.10;99.90;;;;;;5093409;28;20253;-60
2022/10/14 09:14:26;;;;;;;5.20;2.30;;;14.10;99.90;;;;;;5093258;28;20212;-61
2022/10/14 09:17:00;;;;;;;4.17;2.57;;;14.20;99.90;;;;;;5092742;28;20200;-64
2022/10/14 09:19:32;;;;;;;2.10;1.90;;;14.30;99.90;;;;;;5093187;28;20235;-64
2022/10/14 09:22:00;;;;;;;2.27;2.07;;;14.30;99.90;;;;;;5092867;28;20200;-64
2022/10/14 09:24:30;;;;;;;2.93;1.97;;;14.30;99.90;;;;;;5092773;28;20269;-65
2022/10/14 09:27:00;;;;;;;1.77;1.63;;;14.40;99.90;;;;;;5091087;28;20212;-65
2022/10/14 09:29:29;;;;;;;2.10;1.73;;;14.40;99.90;;;;;;5093004;28;20281;-67
2022/10/14 09:32:01;;;;;;;3.83;3.03;;;14.40;99.90;;;;;;5092635;28;20208;-65
2022/10/14 09:34:32;;;;;;;1.97;1.63;;;14.40;99.90;;;;;;5091783;28;20208;-64
2022/10/14 09:37:10;;;;;;;2.93;1.80;;;14.40;99.90;;;;;;5092452;28;20204;-63
2022/10/14 09:39:39;;;;;;;2.77;1.97;;;14.40;99.90;;;;;;5091830;28;20297;-63
2022/10/14 09:42:13;;;;;;;2.17;1.90;;;14.50;99.90;;;;;;5092625;28;20208;-66
2022/10/14 09:44:39;;;;;;;2.27;1.77;;;14.50;99.90;;;;;;5092346;28;20212;-67
2022/10/14 09:47:12;;;;;;;2.03;1.83;;;14.60;99.90;;;;;;5089038;28;20269;-62
2022/10/14 09:49:41;;;;;;;2.20;2.00;;;14.70;99.90;;;;;;5083247;28;20274;-62
2022/10/14 09:52:21;;;;;;;2.13;1.80;;;14.80;99.90;;;;;;5092484;28;20269;-63
2022/10/14 09:54:53;;;;;;;2.10;1.90;;;15.00;99.90;;;;;;5091657;28;20913;-63
2022/10/14 09:57:20;;;;;;;2.87;2.00;;;15.10;99.90;;;;;;5092394;28;20291;-63
2022/10/14 09:59:54;;;;;;;3.57;1.90;;;15.10;99.90;;;;;;5091915;28;20224;-62
2022/10/14 10:02:31;;;;;;;2.20;1.90;;;15.20;99.90;;;;;;5092416;28;20728;-64
2022/10/14 10:04:58;;;;;;;2.80;1.60;;;15.20;99.90;;;;;;5090215;28;20211;-64
2022/10/14 10:07:32;;;;;;;2.20;1.80;;;15.30;99.90;;;;;;5092479;28;20207;-63
2022/10/14 10:10:03;;;;;;;2.87;1.90;;;15.30;99.90;;;;;;5092143;28;20224;-64
2022/10/14 10:12:31;;;;;;;2.47;1.60;;;15.40;99.90;;;;;;5092074;28;20208;-64
2022/10/14 10:15:02;;;;;;;1.60;1.50;;;15.40;99.90;;;;;;5092193;28;20670;-63
2022/10/14 10:17:31;;;;;;;1.87;1.63;;;15.40;99.90;;;;;;5091544;28;20200;-66
2022/10/14 10:20:17;;;;;;;4.30;1.77;;;15.40;99.90;;;;;;5092258;28;20322;-66
2022/10/14 10:22:45;;;;;;;1.90;1.40;;;15.40;99.90;;;;;;5091337;28;20670;-67
2022/10/14 10:25:24;;;;;;;3.30;1.70;;;15.40;99.90;;;;;;5078961;28;20266;-67
2022/10/14 10:27:52;;;;;;;2.20;1.87;;;15.40;99.90;;;;;;5071137;28;20317;-67
2022/10/14 10:30:23;;;;;;;2.17;1.73;;;15.40;99.90;;;;;;5144353;22;21283;-67
2022/10/14 10:33:11;;;;;;;2.73;1.70;;;15.30;99.90;;;;;;5051642;28;20210;-66
2022/10/14 10:35:55;;;;;;;1.93;1.73;;;15.40;99.90;;;;;;5051699;28;20243;-70
2022/10/14 10:38:23;;;;;;;2.37;1.60;;;15.40;99.90;;;;;;5051371;28;20216;-65
2022/10/14 10:41:06;;;;;;;1.80;1.53;;;15.40;99.90;;;;;;5051374;28;20262;-65
2022/10/14 10:43:48;;;;;;;2.33;1.70;;;15.50;99.90;;;;;;5050867;28;20213;-68
2022/10/14 10:46:36;;;;;;;3.10;1.90;;;15.50;99.90;;;;;;5050643;28;20952;-66
2022/10/14 10:49:16;;;;;;;4.13;1.57;;;15.60;99.90;;;;;;5051448;28;20766;-67
2022/10/14 10:51:52;;;;;;;3.43;1.60;;;15.60;99.90;;;;;;5050895;28;20204;-63
2022/10/14 10:54:30;;;;;;;3.77;1.90;;;15.70;99.90;;;;;;5051027;28;20691;-63
2022/10/14 10:57:00;;;;;;;3.57;1.80;;;15.70;99.90;;;;;;5050705;28;20209;-64
2022/10/14 10:59:47;;;;;;;2.30;1.80;;;15.70;99.90;;;;;;5051658;28;20229;-64
2022/10/14 11:02:47;;;;;;;5.43;2.13;;;15.80;99.90;;;;;;5051129;28;20205;-64
2022/10/14 11:05:22;;;;;;;2.87;2.10;;;15.80;99.90;;;;;;5050869;28;20251;-63
2022/10/14 11:13:43;;;;;;;2.10;1.80;;;15.70;99.90;;;;;;5050596;28;20201;-61
2022/10/14 11:16:18;;;;;;;2.57;1.87;;;15.70;99.90;;;;;;5051193;28;20215;-60
2022/10/14 11:18:49;;;;;;;3.33;2.00;;;15.80;99.90;;;;;;5050579;28;20312;-61
2022/10/14 11:21:25;;;;;;;4.13;2.00;;;15.80;99.90;;;;;;5050865;28;20233;-60
2022/10/14 11:24:04;;;;;;;2.47;2.10;;;15.90;99.90;;;;;;5050511;28;20237;-60
2022/10/14 11:26:46;;;;;;;3.17;2.07;;;15.90;99.90;;;;;;5050369;28;20213;-63
2022/10/14 11:29:22;;;;;;;3.27;2.47;;;15.90;99.90;;;;;;5050808;28;20660;-62
2022/10/14 11:31:55;;;;;;;3.97;2.70;;;15.90;99.90;;;;;;5050182;28;20209;-63
2022/10/14 11:34:41;;;;;;;4.03;2.80;;;15.80;99.90;;;;;;5050497;28;20216;-64
2022/10/14 11:37:20;;;;;;;3.20;2.57;;;15.70;99.90;;;;;;5050155;28;20255;-64
2022/10/14 11:39:49;;;;;;;5.33;3.50;;;15.70;99.90;;;;;;5050472;28;20643;-63
2022/10/14 11:42:26;;;;;;;4.87;3.23;;;15.60;99.90;;;;;;5050187;28;20210;-63
2022/10/14 11:45:13;;;;;;;4.53;3.27;;;15.60;99.90;;;;;;5050522;28;20210;-63
2022/10/14 11:47:41;;;;;;;4.77;3.27;;;15.60;99.90;;;;;;5050369;28;20289;-64
2022/10/14 11:50:16;;;;;;;4.80;3.17;;;15.60;99.90;;;;;;5050323;28;20641;-64
2022/10/14 11:52:49;;;;;;;4.70;3.13;;;15.60;99.90;;;;;;5050408;28;20205;-65
2022/10/14 11:55:22;;;;;;;4.80;3.63;;;15.70;99.90;;;;;;5050379;28;20236;-65
2022/10/14 11:57:52;;;;;;;4.23;3.33;;;15.70;99.90;;;;;;5050019;28;20213;-64
2022/10/14 12:00:22;;;;;;;8.37;4.00;;;15.70;99.90;;;;;;5050675;28;20233;-65
2022/10/14 12:02:55;;;;;;;4.40;3.13;;;15.80;99.90;;;;;;5052607;28;20680;-63
2022/10/14 12:05:30;;;;;;;5.33;4.00;;;15.80;99.90;;;;;;5053913;28;20205;-61
2022/10/14 12:08:07;;;;;;;7.70;3.90;;;15.80;99.90;;;;;;5054033;28;20209;-63
2022/10/14 12:10:37;;;;;;;7.90;4.27;;;15.80;99.90;;;;;;5053808;28;20303;-62
2022/10/14 12:13:08;;;;;;;7.00;4.20;;;15.80;99.90;;;;;;5054612;28;20209;-63
2022/10/14 12:15:39;;;;;;;5.77;4.23;;;15.80;99.90;;;;;;5053409;28;20676;-62
2022/10/14 12:18:06;;;;;;;6.97;4.63;;;15.80;99.90;;;;;;5053972;28;20267;-63
2022/10/14 12:20:40;;;;;;;8.40;5.20;;;15.70;99.90;;;;;;5053373;28;20255;-62
2022/10/14 12:23:13;;;;;;;6.87;4.00;;;15.50;99.90;;;;;;5054015;28;20300;-65
2022/10/14 12:25:48;;;;;;;7.10;4.60;;;15.50;99.90;;;;;;5053584;28;20214;-65
2022/10/14 12:28:18;;;;;;;7.07;4.37;;;15.40;99.90;;;;;;5043537;28;20205;-66
2022/10/14 12:30:46;;;;;;;6.53;4.80;;;15.30;99.90;;;;;;5053476;28;20563;-66
2022/10/14 12:33:15;;;;;;;9.20;5.10;;;15.10;99.90;;;;;;5054038;28;20213;-66
2022/10/14 12:35:53;;;;;;;8.03;5.50;;;15.20;99.90;;;;;;5053628;28;20237;-65
2022/10/14 12:38:21;;;;;;;9.00;5.13;;;15.20;99.90;;;;;;5054153;28;20260;-67
2022/10/14 12:40:48;;;;;;;9.13;5.80;;;15.20;99.90;;;;;;5054401;28;20597;-66
2022/10/14 12:43:26;;;;;;;9.87;5.93;;;15.20;99.90;;;;;;5053401;28;20616;-65
2022/10/14 12:46:01;;;;;;;8.40;5.83;;;15.20;99.90;;;;;;5053436;28;20687;-65
2022/10/14 12:48:32;;;;;;;9.13;5.97;;;15.20;99.90;;;;;;5053087;28;20255;-65
2022/10/14 12:51:10;;;;;;;9.13;6.10;;;15.10;99.90;;;;;;5053722;28;20209;-65
2022/10/14 12:53:47;;;;;;;9.90;6.53;;;15.10;99.90;;;;;;5052762;28;20210;-59
2022/10/14 12:56:30;;;;;;;10.77;6.63;;;15.00;99.90;;;;;;5053197;28;20209;-60